Time,TemperatureF,DewpointF,PressureIn,WindDirection,WindDirectionDegrees,WindSpeedMPH,WindSpeedGustMPH,Humidity,HourlyPrecipIn,Conditions,Clouds,dailyrainin,SoftwareType,DateUTC
2013-09-04 00:10:00,63.3,62.7,29.70,NW,315,1.7,-999.0,98,-99.99,,,0.00,Acu-Link.com,2013-09-04 04:10:00,
2013-09-04 00:25:00,63.7,63.1,29.70,NW,315,2.2,-999.0,98,-99.99,,,0.00,Acu-Link.com,2013-09-04 04:25:00,
2013-09-04 00:41:00,63.9,63.3,29.70,NNE,22,2.2,-999.0,98,-99.99,,,0.00,Acu-Link.com,2013-09-04 04:41:00,
2013-09-04 00:56:00,64.0,63.4,29.70,WNW,292,2.7,-999.0,98,-99.99,,,0.00,Acu-Link.com,2013-09-04 04:56:00,
2013-09-04 01:11:00,64.4,63.8,29.70,NNW,337,1.7,-999.0,98,-99.99,,,0.00,Acu-Link.com,2013-09-04 05:11:00,
2013-09-04 01:26:00,64.4,63.8,29.70,NW,315,2.7,-999.0,98,-99.99,,,0.00,Acu-Link.com,2013-09-04 05:26:00,
2013-09-04 01:41:00,64.8,64.2,29.69,NE,45,3.2,-999.0,98,-99.99,,,0.00,Acu-Link.com,2013-09-04 05:41:00,
2013-09-04 01:57:00,64.6,64.0,29.70,North,0,3.7,-999.0,98,-99.99,,,0.00,Acu-Link.com,2013-09-04 05:57:00,
2013-09-04 02:12:00,64.6,64.0,29.70,NW,315,2.7,-999.0,98,-99.99,,,0.00,Acu-Link.com,2013-09-04 06:12:00,
2013-09-04 02:27:00,64.4,63.8,29.70,WNW,292,3.2,-999.0,98,-99.99,,,0.00,Acu-Link.com,2013-09-04 06:27:00,
2013-09-04 02:42:00,64.4,63.8,29.70,WNW,292,2.2,-999.0,98,-99.99,,,0.00,Acu-Link.com,2013-09-04 06:42:00,
2013-09-04 02:57:00,64.0,63.4,29.70,NW,315,1.7,-999.0,98,-99.99,,,0.00,Acu-Link.com,2013-09-04 06:57:00,
2013-09-04 03:13:00,64.0,63.4,29.70,WNW,292,2.2,-999.0,98,-99.99,,,0.00,Acu-Link.com,2013-09-04 07:13:00,
2013-09-04 03:28:00,64.0,63.4,29.71,SE,135,3.7,-999.0,98,-99.99,,,0.00,Acu-Link.com,2013-09-04 07:28:00,
2013-09-04 03:43:00,64.0,63.4,29.71,WNW,292,3.7,-999.0,98,-99.99,,,0.00,Acu-Link.com,2013-09-04 07:43:00,
2013-09-04 03:58:00,63.9,63.3,29.71,NW,315,2.2,-999.0,98,-99.99,,,0.00,Acu-Link.com,2013-09-04 07:58:00,
2013-09-04 04:14:00,63.9,63.3,29.72,WNW,292,2.7,-999.0,98,-99.99,,,0.00,Acu-Link.com,2013-09-04 08:14:00,
2013-09-04 04:29:00,63.9,63.3,29.71,WNW,292,1.7,-999.0,98,-99.99,,,0.00,Acu-Link.com,2013-09-04 08:29:00,
2013-09-04 04:44:00,63.9,63.3,29.71,NW,315,2.7,-999.0,98,-99.99,,,0.00,Acu-Link.com,2013-09-04 08:44:00,
2013-09-04 04:59:00,63.7,63.1,29.72,NW,315,2.7,-999.0,98,-99.99,,,0.00,Acu-Link.com,2013-09-04 08:59:00,
2013-09-04 05:14:00,63.7,63.1,29.73,WNW,292,4.2,-999.0,98,-99.99,,,0.00,Acu-Link.com,2013-09-04 09:14:00,
2013-09-04 05:29:00,63.3,62.7,29.74,NW,315,1.1,-999.0,98,-99.99,,,0.00,Acu-Link.com,2013-09-04 09:29:00,
2013-09-04 05:45:00,63.1,62.5,29.73,NW,315,4.7,-999.0,98,-99.99,,,0.00,Acu-Link.com,2013-09-04 09:45:00,
2013-09-04 06:00:00,63.5,62.9,29.75,WNW,292,3.2,-999.0,98,-99.99,,,0.00,Acu-Link.com,2013-09-04 10:00:00,
2013-09-04 06:15:00,63.3,62.7,29.75,NE,45,3.7,-999.0,98,-99.99,,,0.00,Acu-Link.com,2013-09-04 10:15:00,
2013-09-04 06:30:00,63.1,62.5,29.75,WNW,292,1.7,-999.0,98,-99.99,,,0.00,Acu-Link.com,2013-09-04 10:30:00,
2013-09-04 06:46:00,63.0,62.4,29.76,WNW,292,1.7,-999.0,98,-99.99,,,0.00,Acu-Link.com,2013-09-04 10:46:00,
2013-09-04 07:01:00,62.8,62.2,29.75,SW,225,1.1,-999.0,98,-99.99,,,0.00,Acu-Link.com,2013-09-04 11:01:00,
2013-09-04 07:16:00,62.8,62.2,29.75,WNW,292,4.7,-999.0,98,-99.99,,,0.00,Acu-Link.com,2013-09-04 11:16:00,
2013-09-04 07:31:00,63.5,62.9,29.76,SW,225,4.7,-999.0,98,-99.99,,,0.00,Acu-Link.com,2013-09-04 11:31:00,
2013-09-04 07:46:00,64.0,63.4,29.77,WNW,292,2.2,-999.0,98,-99.99,,,0.00,Acu-Link.com,2013-09-04 11:46:00,
2013-09-04 08:02:00,64.2,63.6,29.77,NW,315,2.7,-999.0,98,-99.99,,,0.00,Acu-Link.com,2013-09-04 12:02:00,
2013-09-04 08:17:00,64.4,63.8,29.77,SSW,202,2.2,-999.0,98,-99.99,,,0.00,Acu-Link.com,2013-09-04 12:17:00,
2013-09-04 08:32:00,64.4,63.8,29.78,NW,315,2.7,-999.0,98,-99.99,,,0.00,Acu-Link.com,2013-09-04 12:32:00,
2013-09-04 08:48:00,64.8,64.2,29.77,NW,315,1.7,-999.0,98,-99.99,,,0.00,Acu-Link.com,2013-09-04 12:48:00,
2013-09-04 09:03:00,65.5,64.9,29.78,WNW,292,2.7,-999.0,98,-99.99,,,0.00,Acu-Link.com,2013-09-04 13:03:00,
2013-09-04 09:18:00,66.4,65.8,29.77,WNW,292,2.7,-999.0,98,-99.99,,,0.00,Acu-Link.com,2013-09-04 13:18:00,
2013-09-04 09:33:00,66.7,66.1,29.77,NNE,22,3.7,-999.0,98,-99.99,,,0.00,Acu-Link.com,2013-09-04 13:33:00,
2013-09-04 09:48:00,67.5,66.6,29.78,NW,315,3.7,-999.0,97,-99.99,,,0.00,Acu-Link.com,2013-09-04 13:48:00,
2013-09-04 10:04:00,67.8,66.0,29.78,NNW,337,2.2,-999.0,94,-99.99,,,0.00,Acu-Link.com,2013-09-04 14:04:00,
2013-09-04 10:19:00,68.9,62.8,29.78,WNW,292,4.2,-999.0,81,-99.99,,,0.00,Acu-Link.com,2013-09-04 14:19:00,
2013-09-04 10:34:00,69.4,62.2,29.77,SW,225,1.7,-999.0,78,-99.99,,,0.00,Acu-Link.com,2013-09-04 14:34:00,
2013-09-04 10:49:00,70.7,59.2,29.77,NW,315,4.2,-999.0,67,-99.99,,,0.00,Acu-Link.com,2013-09-04 14:49:00,
2013-09-04 11:05:00,70.7,57.9,29.78,WNW,292,4.7,-999.0,64,-99.99,,,0.00,Acu-Link.com,2013-09-04 15:05:00,
2013-09-04 11:20:00,72.3,59.0,29.78,NNE,22,2.7,-999.0,63,-99.99,,,0.00,Acu-Link.com,2013-09-04 15:20:00,
2013-09-04 11:35:00,73.2,58.0,29.77,WNW,292,2.2,-999.0,59,-99.99,,,0.00,Acu-Link.com,2013-09-04 15:35:00,
2013-09-04 11:50:00,75.0,57.7,29.76,ESE,112,2.2,-999.0,55,-99.99,,,0.00,Acu-Link.com,2013-09-04 15:50:00,
2013-09-04 12:06:00,75.7,61.7,29.77,NW,315,2.2,-999.0,62,-99.99,,,0.00,Acu-Link.com,2013-09-04 16:06:00,
2013-09-04 12:21:00,76.8,61.4,29.76,NW,315,1.7,-999.0,59,-99.99,,,0.00,Acu-Link.com,2013-09-04 16:21:00,
2013-09-04 12:36:00,75.9,60.0,29.76,SSW,202,0.0,-999.0,58,-99.99,,,0.00,Acu-Link.com,2013-09-04 16:36:00,
2013-09-04 12:51:00,77.7,60.2,29.77,East,90,4.7,-999.0,55,-99.99,,,0.00,Acu-Link.com,2013-09-04 16:51:00,
2013-09-04 13:06:00,76.6,59.7,29.77,East,90,1.1,-999.0,56,-99.99,,,0.00,Acu-Link.com,2013-09-04 17:06:00,
2013-09-04 13:22:00,75.9,60.5,29.76,ENE,67,0.0,-999.0,59,-99.99,,,0.00,Acu-Link.com,2013-09-04 17:22:00,
2013-09-04 13:37:00,74.5,62.8,29.77,North,0,0.0,-999.0,67,-99.99,,,0.00,Acu-Link.com,2013-09-04 17:37:00,
2013-09-04 13:52:00,72.9,62.5,29.76,East,90,2.7,-999.0,70,-99.99,,,0.00,Acu-Link.com,2013-09-04 17:52:00,
2013-09-04 14:07:00,72.9,62.9,29.76,North,0,1.1,-999.0,71,-99.99,,,0.00,Acu-Link.com,2013-09-04 18:07:00,
2013-09-04 14:22:00,72.7,61.1,29.77,SSW,202,4.2,-999.0,67,-99.99,,,0.00,Acu-Link.com,2013-09-04 18:22:00,
2013-09-04 14:38:00,73.2,60.7,29.77,NE,45,3.7,-999.0,65,-99.99,,,0.00,Acu-Link.com,2013-09-04 18:38:00,
2013-09-04 14:53:00,73.8,61.7,29.77,ENE,67,1.1,-999.0,66,-99.99,,,0.00,Acu-Link.com,2013-09-04 18:53:00,
2013-09-04 15:08:00,73.2,62.4,29.78,SW,225,2.7,-999.0,69,-99.99,,,0.00,Acu-Link.com,2013-09-04 19:08:00,
2013-09-04 15:23:00,73.6,63.2,29.78,WNW,292,3.2,-999.0,70,-99.99,,,0.00,Acu-Link.com,2013-09-04 19:23:00,
2013-09-04 15:39:00,72.9,65.3,29.78,NW,315,3.2,-999.0,77,-99.99,,,0.00,Acu-Link.com,2013-09-04 19:39:00,
2013-09-04 15:54:00,72.1,65.9,29.78,North,0,3.7,-999.0,81,-99.99,,,0.00,Acu-Link.com,2013-09-04 19:54:00,
2013-09-04 16:09:00,71.8,66.0,29.78,WNW,292,2.2,-999.0,82,-99.99,,,0.00,Acu-Link.com,2013-09-04 20:09:00,
2013-09-04 16:24:00,71.8,66.3,29.79,NNE,22,2.2,-999.0,83,-99.99,,,0.00,Acu-Link.com,2013-09-04 20:24:00,
2013-09-04 16:40:00,71.4,68.6,29.78,NW,315,2.2,-999.0,91,-99.99,,,0.00,Acu-Link.com,2013-09-04 20:40:00,
2013-09-04 16:55:00,71.2,69.4,29.77,North,0,1.7,-999.0,94,-99.99,,,0.00,Acu-Link.com,2013-09-04 20:55:00,
2013-09-04 17:10:00,71.1,68.3,29.77,South,180,1.1,-999.0,91,-99.99,,,0.00,Acu-Link.com,2013-09-04 21:10:00,
2013-09-04 17:25:00,70.7,70.1,29.77,West,270,0.0,-999.0,98,-99.99,,,0.00,Acu-Link.com,2013-09-04 21:25:00,
2013-09-04 17:40:00,69.6,69.0,29.78,West,270,0.0,-999.0,98,-99.99,,,0.00,Acu-Link.com,2013-09-04 21:40:00,
2013-09-04 17:56:00,69.1,68.5,29.79,WNW,292,0.0,-999.0,98,-99.99,,,0.00,Acu-Link.com,2013-09-04 21:56:00,
2013-09-04 18:11:00,68.5,67.9,29.78,East,90,0.0,-999.0,98,-99.99,,,0.00,Acu-Link.com,2013-09-04 22:11:00,
2013-09-04 18:26:00,68.0,67.4,29.78,NW,315,0.0,-999.0,98,-99.99,,,0.00,Acu-Link.com,2013-09-04 22:26:00,
2013-09-04 18:41:00,67.3,66.7,29.79,WNW,292,0.0,-999.0,98,-99.99,,,0.00,Acu-Link.com,2013-09-04 22:41:00,
2013-09-04 18:57:00,66.6,66.0,29.79,North,0,1.1,-999.0,98,-99.99,,,0.00,Acu-Link.com,2013-09-04 22:57:00,
2013-09-04 19:12:00,66.7,66.1,29.79,NW,315,0.0,-999.0,98,-99.99,,,0.00,Acu-Link.com,2013-09-04 23:12:00,
2013-09-04 19:27:00,66.7,66.1,29.79,NNE,22,2.2,-999.0,98,-99.99,,,0.00,Acu-Link.com,2013-09-04 23:27:00,
2013-09-04 19:42:00,66.7,66.1,29.80,NW,315,1.7,-999.0,98,-99.99,,,0.00,Acu-Link.com,2013-09-04 23:42:00,
2013-09-04 19:57:00,66.6,66.0,29.81,NW,315,1.7,-999.0,98,-99.99,,,0.00,Acu-Link.com,2013-09-04 23:57:00,
2013-09-04 20:13:00,66.0,65.4,29.82,NW,315,0.0,-999.0,98,-99.99,,,0.00,Acu-Link.com,2013-09-05 00:13:00,
2013-09-04 20:28:00,66.0,65.4,29.83,SSE,157,0.0,-999.0,98,-99.99,,,0.00,Acu-Link.com,2013-09-05 00:28:00,
2013-09-04 20:43:00,65.8,65.2,29.83,NE,45,0.0,-999.0,98,-99.99,,,0.00,Acu-Link.com,2013-09-05 00:43:00,
2013-09-04 20:58:00,65.5,64.9,29.83,NNE,22,0.0,-999.0,98,-99.99,,,0.00,Acu-Link.com,2013-09-05 00:58:00,
2013-09-04 21:13:00,65.5,64.9,29.82,East,90,0.0,-999.0,98,-99.99,,,0.00,Acu-Link.com,2013-09-05 01:13:00,
2013-09-04 21:29:00,65.3,64.7,29.82,East,90,0.0,-999.0,98,-99.99,,,0.00,Acu-Link.com,2013-09-05 01:29:00,
2013-09-04 21:44:00,65.1,64.5,29.84,NW,315,0.0,-999.0,98,-99.99,,,0.00,Acu-Link.com,2013-09-05 01:44:00,
2013-09-04 21:59:00,64.6,64.0,29.84,WNW,292,0.0,-999.0,98,-99.99,,,0.00,Acu-Link.com,2013-09-05 01:59:00,
2013-09-04 22:14:00,63.7,63.1,29.85,NNW,337,0.0,-999.0,98,-99.99,,,0.00,Acu-Link.com,2013-09-05 02:14:00,
2013-09-04 22:29:00,63.3,62.7,29.84,West,270,0.0,-999.0,98,-99.99,,,0.00,Acu-Link.com,2013-09-05 02:29:00,
2013-09-04 22:45:00,63.1,62.5,29.84,ESE,112,0.0,-999.0,98,-99.99,,,0.00,Acu-Link.com,2013-09-05 02:45:00,
2013-09-04 23:00:00,62.6,62.0,29.84,NW,315,0.0,-999.0,98,-99.99,,,0.00,Acu-Link.com,2013-09-05 03:00:00,
2013-09-04 23:15:00,62.6,62.0,29.85,NNW,337,0.0,-999.0,98,-99.99,,,0.00,Acu-Link.com,2013-09-05 03:15:00,
2013-09-04 23:30:00,61.9,61.3,29.84,South,180,2.2,-999.0,98,-99.99,,,0.00,Acu-Link.com,2013-09-05 03:30:00,
2013-09-04 23:46:00,61.7,61.1,29.84,SW,225,0.0,-999.0,98,-99.99,,,0.00,Acu-Link.com,2013-09-05 03:46:00,